sensor_id;sensor_type;location;lat;lon;timestamp;P1;durP1;ratioP1;P2;durP2;ratioP2
71941;SDS011;59997;53.300;-6.260;2022-08-25T00:00:29;14.47;;;3.17;;
71941;SDS011;59997;53.300;-6.260;2022-08-25T00:02:55;14.30;;;3.67;;
71941;SDS011;59997;53.300;-6.260;2022-08-25T00:05:23;15.57;;;3.00;;
71941;SDS011;59997;53.300;-6.260;2022-08-25T00:07:50;12.13;;;2.78;;
71941;SDS011;59997;53.300;-6.260;2022-08-25T00:10:16;12.57;;;2.60;;
71941;SDS011;59997;53.300;-6.260;2022-08-25T00:12:42;9.80;;;2.30;;
71941;SDS011;59997;53.300;-6.260;2022-08-25T00:15:07;10.30;;;2.10;;
71941;SDS011;59997;53.300;-6.260;2022-08-25T00:17:34;12.30;;;2.30;;
71941;SDS011;59997;53.300;-6.260;2022-08-25T00:20:00;9.43;;;2.30;;
71941;SDS011;59997;53.300;-6.260;2022-08-25T00:22:25;11.40;;;2.10;;
71941;SDS011;59997;53.300;-6.260;2022-08-25T00:24:51;14.98;;;2.25;;
71941;SDS011;59997;53.300;-6.260;2022-08-25T00:27:17;14.23;;;2.00;;
71941;SDS011;59997;53.300;-6.260;2022-08-25T00:29:43;10.73;;;1.67;;
71941;SDS011;59997;53.300;-6.260;2022-08-25T00:32:09;12.45;;;2.33;;
71941;SDS011;59997;53.300;-6.260;2022-08-25T00:34:36;13.93;;;2.83;;
71941;SDS011;59997;53.300;-6.260;2022-08-25T00:37:03;11.55;;;1.80;;
71941;SDS011;59997;53.300;-6.260;2022-08-25T00:39:32;10.40;;;2.03;;
71941;SDS011;59997;53.300;-6.260;2022-08-25T00:41:58;9.43;;;2.05;;
71941;SDS011;59997;53.300;-6.260;2022-08-25T00:44:25;11.07;;;2.17;;
71941;SDS011;59997;53.300;-6.260;2022-08-25T00:46:54;13.35;;;1.80;;
71941;SDS011;59997;53.300;-6.260;2022-08-25T00:52:38;12.50;;;1.80;;
71941;SDS011;59997;53.300;-6.260;2022-08-25T00:55:09;14.43;;;2.75;;
71941;SDS011;59997;53.300;-6.260;2022-08-25T00:57:40;10.15;;;1.60;;
71941;SDS011;59997;53.300;-6.260;2022-08-25T01:00:27;12.05;;;1.88;;
71941;SDS011;59997;53.300;-6.260;2022-08-25T01:03:00;12.73;;;1.90;;
71941;SDS011;59997;53.300;-6.260;2022-08-25T01:05:26;15.33;;;1.73;;
71941;SDS011;59997;53.300;-6.260;2022-08-25T01:07:54;15.30;;;1.90;;
71941;SDS011;59997;53.300;-6.260;2022-08-25T01:10:22;15.63;;;1.80;;
71941;SDS011;59997;53.300;-6.260;2022-08-25T01:12:49;13.30;;;1.80;;
71941;SDS011;59997;53.300;-6.260;2022-08-25T01:15:17;18.52;;;2.50;;
71941;SDS011;59997;53.300;-6.260;2022-08-25T01:17:45;12.33;;;2.03;;
71941;SDS011;59997;53.300;-6.260;2022-08-25T01:20:17;16.38;;;1.80;;
71941;SDS011;59997;53.300;-6.260;2022-08-25T01:22:45;16.85;;;1.90;;
71941;SDS011;59997;53.300;-6.260;2022-08-25T01:25:16;13.73;;;1.50;;
71941;SDS011;59997;53.300;-6.260;2022-08-25T01:28:04;14.95;;;2.10;;
71941;SDS011;59997;53.300;-6.260;2022-08-25T01:30:30;16.43;;;2.10;;
71941;SDS011;59997;53.300;-6.260;2022-08-25T01:32:56;14.82;;;2.42;;
71941;SDS011;59997;53.300;-6.260;2022-08-25T01:35:22;17.67;;;1.80;;
71941;SDS011;59997;53.300;-6.260;2022-08-25T01:37:49;17.70;;;2.40;;
71941;SDS011;59997;53.300;-6.260;2022-08-25T01:40:15;18.60;;;1.88;;
71941;SDS011;59997;53.300;-6.260;2022-08-25T01:45:16;15.70;;;2.03;;
71941;SDS011;59997;53.300;-6.260;2022-08-25T01:47:42;11.47;;;1.80;;
71941;SDS011;59997;53.300;-6.260;2022-08-25T01:50:08;18.40;;;2.20;;
71941;SDS011;59997;53.300;-6.260;2022-08-25T01:55:21;13.40;;;2.10;;
71941;SDS011;59997;53.300;-6.260;2022-08-25T01:57:47;16.02;;;2.10;;
71941;SDS011;59997;53.300;-6.260;2022-08-25T02:00:14;9.98;;;1.58;;
71941;SDS011;59997;53.300;-6.260;2022-08-25T02:02:43;12.75;;;1.98;;
71941;SDS011;59997;53.300;-6.260;2022-08-25T02:05:09;11.47;;;1.57;;
71941;SDS011;59997;53.300;-6.260;2022-08-25T02:07:39;17.95;;;1.83;;
71941;SDS011;59997;53.300;-6.260;2022-08-25T02:10:06;16.48;;;1.85;;
71941;SDS011;59997;53.300;-6.260;2022-08-25T02:12:33;13.75;;;1.52;;
71941;SDS011;59997;53.300;-6.260;2022-08-25T02:15:00;14.18;;;1.80;;
71941;SDS011;59997;53.300;-6.260;2022-08-25T02:17:27;17.10;;;2.13;;
71941;SDS011;59997;53.300;-6.260;2022-08-25T02:19:53;10.10;;;1.58;;
71941;SDS011;59997;53.300;-6.260;2022-08-25T02:22:22;18.48;;;2.08;;
71941;SDS011;59997;53.300;-6.260;2022-08-25T02:24:48;13.80;;;1.95;;
71941;SDS011;59997;53.300;-6.260;2022-08-25T02:27:15;14.40;;;1.70;;
71941;SDS011;59997;53.300;-6.260;2022-08-25T02:29:41;16.70;;;1.50;;
71941;SDS011;59997;53.300;-6.260;2022-08-25T02:32:07;15.75;;;2.42;;
71941;SDS011;59997;53.300;-6.260;2022-08-25T02:34:33;15.13;;;2.05;;
71941;SDS011;59997;53.300;-6.260;2022-08-25T02:37:00;14.87;;;2.00;;
71941;SDS011;59997;53.300;-6.260;2022-08-25T02:39:26;12.63;;;1.63;;
71941;SDS011;59997;53.300;-6.260;2022-08-25T02:41:52;14.18;;;1.73;;
71941;SDS011;59997;53.300;-6.260;2022-08-25T02:44:18;16.07;;;1.83;;
71941;SDS011;59997;53.300;-6.260;2022-08-25T02:46:44;16.10;;;3.42;;
71941;SDS011;59997;53.300;-6.260;2022-08-25T02:49:10;18.42;;;2.35;;
71941;SDS011;59997;53.300;-6.260;2022-08-25T02:51:36;16.87;;;2.10;;
71941;SDS011;59997;53.300;-6.260;2022-08-25T02:54:02;13.45;;;2.17;;
71941;SDS011;59997;53.300;-6.260;2022-08-25T02:56:31;13.25;;;2.20;;
71941;SDS011;59997;53.300;-6.260;2022-08-25T02:58:57;18.15;;;1.88;;
71941;SDS011;59997;53.300;-6.260;2022-08-25T03:01:23;12.10;;;1.73;;
71941;SDS011;59997;53.300;-6.260;2022-08-25T03:03:49;14.77;;;2.30;;
71941;SDS011;59997;53.300;-6.260;2022-08-25T03:06:17;16.30;;;1.70;;
71941;SDS011;59997;53.300;-6.260;2022-08-25T03:08:48;15.55;;;1.50;;
71941;SDS011;59997;53.300;-6.260;2022-08-25T03:11:13;11.38;;;1.95;;
71941;SDS011;59997;53.300;-6.260;2022-08-25T03:13:39;13.10;;;2.17;;
71941;SDS011;59997;53.300;-6.260;2022-08-25T03:16:05;17.27;;;2.40;;
71941;SDS011;59997;53.300;-6.260;2022-08-25T03:18:32;14.30;;;1.70;;
71941;SDS011;59997;53.300;-6.260;2022-08-25T03:20:59;14.98;;;1.92;;
71941;SDS011;59997;53.300;-6.260;2022-08-25T03:23:25;12.63;;;2.03;;
71941;SDS011;59997;53.300;-6.260;2022-08-25T03:25:55;13.57;;;1.92;;
71941;SDS011;59997;53.300;-6.260;2022-08-25T03:28:43;14.07;;;1.88;;
71941;SDS011;59997;53.300;-6.260;2022-08-25T03:31:08;13.43;;;1.85;;
71941;SDS011;59997;53.300;-6.260;2022-08-25T03:33:35;24.13;;;2.57;;
71941;SDS011;59997;53.300;-6.260;2022-08-25T03:36:02;12.32;;;1.67;;
71941;SDS011;59997;53.300;-6.260;2022-08-25T03:38:30;15.75;;;2.47;;
71941;SDS011;59997;53.300;-6.260;2022-08-25T03:40:56;23.73;;;3.17;;
71941;SDS011;59997;53.300;-6.260;2022-08-25T03:43:23;13.23;;;2.30;;
71941;SDS011;59997;53.300;-6.260;2022-08-25T03:45:48;17.27;;;1.85;;
71941;SDS011;59997;53.300;-6.260;2022-08-25T03:48:14;17.07;;;2.60;;
71941;SDS011;59997;53.300;-6.260;2022-08-25T03:50:43;15.87;;;2.20;;
71941;SDS011;59997;53.300;-6.260;2022-08-25T03:53:13;17.50;;;2.25;;
71941;SDS011;59997;53.300;-6.260;2022-08-25T03:55:39;13.63;;;2.37;;
71941;SDS011;59997;53.300;-6.260;2022-08-25T03:58:05;15.68;;;2.25;;
71941;SDS011;59997;53.300;-6.260;2022-08-25T04:00:31;15.67;;;2.47;;
71941;SDS011;59997;53.300;-6.260;2022-08-25T04:02:57;16.98;;;2.47;;
71941;SDS011;59997;53.300;-6.260;2022-08-25T04:05:23;18.30;;;3.42;;
71941;SDS011;59997;53.300;-6.260;2022-08-25T04:07:48;13.67;;;1.70;;
71941;SDS011;59997;53.300;-6.260;2022-08-25T04:10:14;11.15;;;1.60;;
71941;SDS011;59997;53.300;-6.260;2022-08-25T04:12:39;12.50;;;1.80;;
71941;SDS011;59997;53.300;-6.260;2022-08-25T04:15:06;17.08;;;1.73;;
71941;SDS011;59997;53.300;-6.260;2022-08-25T04:17:33;16.13;;;2.25;;
71941;SDS011;59997;53.300;-6.260;2022-08-25T04:20:02;23.37;;;2.37;;
71941;SDS011;59997;53.300;-6.260;2022-08-25T04:22:29;15.90;;;1.73;;
71941;SDS011;59997;53.300;-6.260;2022-08-25T04:24:57;14.70;;;2.22;;
71941;SDS011;59997;53.300;-6.260;2022-08-25T04:27:24;15.75;;;1.80;;
71941;SDS011;59997;53.300;-6.260;2022-08-25T04:29:50;13.23;;;2.30;;
71941;SDS011;59997;53.300;-6.260;2022-08-25T04:32:16;11.83;;;1.80;;
71941;SDS011;59997;53.300;-6.260;2022-08-25T04:34:41;12.43;;;1.70;;
71941;SDS011;59997;53.300;-6.260;2022-08-25T04:37:08;13.05;;;1.92;;
71941;SDS011;59997;53.300;-6.260;2022-08-25T04:39:34;14.18;;;2.83;;
71941;SDS011;59997;53.300;-6.260;2022-08-25T04:42:00;15.70;;;2.17;;
71941;SDS011;59997;53.300;-6.260;2022-08-25T04:44:26;11.90;;;1.88;;
71941;SDS011;59997;53.300;-6.260;2022-08-25T04:46:53;14.52;;;1.70;;
71941;SDS011;59997;53.300;-6.260;2022-08-25T04:49:18;16.27;;;1.80;;
71941;SDS011;59997;53.300;-6.260;2022-08-25T04:51:45;12.47;;;2.03;;
71941;SDS011;59997;53.300;-6.260;2022-08-25T04:54:12;10.20;;;1.67;;
71941;SDS011;59997;53.300;-6.260;2022-08-25T04:56:40;13.32;;;1.85;;
71941;SDS011;59997;53.300;-6.260;2022-08-25T04:59:08;13.10;;;2.20;;
71941;SDS011;59997;53.300;-6.260;2022-08-25T05:01:36;12.40;;;2.00;;
71941;SDS011;59997;53.300;-6.260;2022-08-25T05:04:04;17.92;;;2.13;;
71941;SDS011;59997;53.300;-6.260;2022-08-25T05:06:31;15.65;;;2.35;;
71941;SDS011;59997;53.300;-6.260;2022-08-25T05:08:57;10.38;;;2.08;;
71941;SDS011;59997;53.300;-6.260;2022-08-25T05:11:24;13.30;;;1.93;;
71941;SDS011;59997;53.300;-6.260;2022-08-25T05:13:52;14.10;;;2.25;;
71941;SDS011;59997;53.300;-6.260;2022-08-25T05:16:19;13.40;;;2.15;;
71941;SDS011;59997;53.300;-6.260;2022-08-25T05:18:47;12.95;;;1.80;;
71941;SDS011;59997;53.300;-6.260;2022-08-25T05:21:15;12.43;;;1.83;;
71941;SDS011;59997;53.300;-6.260;2022-08-25T05:23:43;12.77;;;1.73;;
71941;SDS011;59997;53.300;-6.260;2022-08-25T05:26:15;11.27;;;1.95;;
71941;SDS011;59997;53.300;-6.260;2022-08-25T05:28:42;11.13;;;1.90;;
71941;SDS011;59997;53.300;-6.260;2022-08-25T05:31:09;10.77;;;1.67;;
71941;SDS011;59997;53.300;-6.260;2022-08-25T05:33:36;16.27;;;2.25;;
71941;SDS011;59997;53.300;-6.260;2022-08-25T05:36:05;12.95;;;1.70;;
71941;SDS011;59997;53.300;-6.260;2022-08-25T05:38:33;8.95;;;1.83;;
71941;SDS011;59997;53.300;-6.260;2022-08-25T05:41:01;12.68;;;2.40;;
71941;SDS011;59997;53.300;-6.260;2022-08-25T05:43:30;20.37;;;1.93;;
71941;SDS011;59997;53.300;-6.260;2022-08-25T05:45:56;16.20;;;2.00;;
71941;SDS011;59997;53.300;-6.260;2022-08-25T05:48:23;13.10;;;3.05;;
71941;SDS011;59997;53.300;-6.260;2022-08-25T05:50:58;14.35;;;2.30;;
71941;SDS011;59997;53.300;-6.260;2022-08-25T05:53:26;12.80;;;1.38;;
71941;SDS011;59997;53.300;-6.260;2022-08-25T05:55:53;17.00;;;1.70;;
71941;SDS011;59997;53.300;-6.260;2022-08-25T05:58:20;14.07;;;1.80;;
71941;SDS011;59997;53.300;-6.260;2022-08-25T06:00:47;15.07;;;2.10;;
71941;SDS011;59997;53.300;-6.260;2022-08-25T06:03:13;9.77;;;1.48;;
71941;SDS011;59997;53.300;-6.260;2022-08-25T06:05:39;13.67;;;1.70;;
71941;SDS011;59997;53.300;-6.260;2022-08-25T06:08:05;8.90;;;1.40;;
71941;SDS011;59997;53.300;-6.260;2022-08-25T06:10:31;10.57;;;1.60;;
71941;SDS011;59997;53.300;-6.260;2022-08-25T06:12:57;10.87;;;1.50;;
71941;SDS011;59997;53.300;-6.260;2022-08-25T06:15:23;13.02;;;1.75;;
71941;SDS011;59997;53.300;-6.260;2022-08-25T06:17:50;9.97;;;1.40;;
71941;SDS011;59997;53.300;-6.260;2022-08-25T06:20:17;8.25;;;1.10;;
71941;SDS011;59997;53.300;-6.260;2022-08-25T06:22:45;10.13;;;1.40;;
71941;SDS011;59997;53.300;-6.260;2022-08-25T06:25:12;13.10;;;1.65;;
71941;SDS011;59997;53.300;-6.260;2022-08-25T06:27:39;13.07;;;1.90;;
71941;SDS011;59997;53.300;-6.260;2022-08-25T06:30:06;10.67;;;1.10;;
71941;SDS011;59997;53.300;-6.260;2022-08-25T06:32:37;8.93;;;1.27;;
71941;SDS011;59997;53.300;-6.260;2022-08-25T06:35:04;12.50;;;1.45;;
71941;SDS011;59997;53.300;-6.260;2022-08-25T06:37:33;10.63;;;1.25;;
71941;SDS011;59997;53.300;-6.260;2022-08-25T06:40:00;9.68;;;1.50;;
71941;SDS011;59997;53.300;-6.260;2022-08-25T06:42:26;7.67;;;1.10;;
71941;SDS011;59997;53.300;-6.260;2022-08-25T06:44:52;12.13;;;1.27;;
71941;SDS011;59997;53.300;-6.260;2022-08-25T06:47:18;7.30;;;0.90;;
71941;SDS011;59997;53.300;-6.260;2022-08-25T06:49:44;7.53;;;1.02;;
71941;SDS011;59997;53.300;-6.260;2022-08-25T06:52:11;12.65;;;1.60;;
71941;SDS011;59997;53.300;-6.260;2022-08-25T06:54:38;9.63;;;1.05;;
71941;SDS011;59997;53.300;-6.260;2022-08-25T06:57:04;7.88;;;1.08;;
71941;SDS011;59997;53.300;-6.260;2022-08-25T06:59:31;13.57;;;1.27;;
71941;SDS011;59997;53.300;-6.260;2022-08-25T07:01:58;8.82;;;1.17;;
71941;SDS011;59997;53.300;-6.260;2022-08-25T07:04:24;9.10;;;1.20;;
71941;SDS011;59997;53.300;-6.260;2022-08-25T07:06:49;7.67;;;0.97;;
71941;SDS011;59997;53.300;-6.260;2022-08-25T07:09:16;9.05;;;0.70;;
71941;SDS011;59997;53.300;-6.260;2022-08-25T07:11:42;11.30;;;2.20;;
71941;SDS011;59997;53.300;-6.260;2022-08-25T07:14:10;9.63;;;1.25;;
71941;SDS011;59997;53.300;-6.260;2022-08-25T07:16:38;6.00;;;0.70;;
71941;SDS011;59997;53.300;-6.260;2022-08-25T07:19:07;9.77;;;1.05;;
71941;SDS011;59997;53.300;-6.260;2022-08-25T07:21:35;7.28;;;1.05;;
71941;SDS011;59997;53.300;-6.260;2022-08-25T07:26:45;14.18;;;1.60;;
71941;SDS011;59997;53.300;-6.260;2022-08-25T07:29:15;9.77;;;1.52;;
71941;SDS011;59997;53.300;-6.260;2022-08-25T07:31:44;12.15;;;1.70;;
71941;SDS011;59997;53.300;-6.260;2022-08-25T07:34:10;6.97;;;1.30;;
71941;SDS011;59997;53.300;-6.260;2022-08-25T07:36:54;10.15;;;1.75;;
71941;SDS011;59997;53.300;-6.260;2022-08-25T07:39:21;7.15;;;1.20;;
71941;SDS011;59997;53.300;-6.260;2022-08-25T07:41:47;7.03;;;1.27;;
71941;SDS011;59997;53.300;-6.260;2022-08-25T07:44:13;8.95;;;1.35;;
71941;SDS011;59997;53.300;-6.260;2022-08-25T07:46:39;8.23;;;1.50;;
71941;SDS011;59997;53.300;-6.260;2022-08-25T07:49:05;7.73;;;1.00;;
71941;SDS011;59997;53.300;-6.260;2022-08-25T07:51:31;9.38;;;1.63;;
71941;SDS011;59997;53.300;-6.260;2022-08-25T07:53:57;8.00;;;2.17;;
71941;SDS011;59997;53.300;-6.260;2022-08-25T07:56:23;11.15;;;1.60;;
71941;SDS011;59997;53.300;-6.260;2022-08-25T07:58:49;10.95;;;1.55;;
71941;SDS011;59997;53.300;-6.260;2022-08-25T08:01:19;8.88;;;1.90;;
71941;SDS011;59997;53.300;-6.260;2022-08-25T08:03:47;7.37;;;1.60;;
71941;SDS011;59997;53.300;-6.260;2022-08-25T08:06:19;8.95;;;1.67;;
71941;SDS011;59997;53.300;-6.260;2022-08-25T08:08:47;8.63;;;1.70;;
71941;SDS011;59997;53.300;-6.260;2022-08-25T08:11:19;7.38;;;1.92;;
71941;SDS011;59997;53.300;-6.260;2022-08-25T08:13:47;6.72;;;1.60;;
71941;SDS011;59997;53.300;-6.260;2022-08-25T08:16:15;8.27;;;1.70;;
71941;SDS011;59997;53.300;-6.260;2022-08-25T08:18:43;9.05;;;1.58;;
71941;SDS011;59997;53.300;-6.260;2022-08-25T08:21:20;10.13;;;2.22;;
71941;SDS011;59997;53.300;-6.260;2022-08-25T08:23:49;14.63;;;2.00;;
71941;SDS011;59997;53.300;-6.260;2022-08-25T08:26:17;11.73;;;2.50;;
71941;SDS011;59997;53.300;-6.260;2022-08-25T08:28:44;12.07;;;2.27;;
71941;SDS011;59997;53.300;-6.260;2022-08-25T08:31:10;10.82;;;1.60;;
71941;SDS011;59997;53.300;-6.260;2022-08-25T08:33:36;8.30;;;1.58;;
71941;SDS011;59997;53.300;-6.260;2022-08-25T08:36:07;10.07;;;1.73;;
71941;SDS011;59997;53.300;-6.260;2022-08-25T08:38:36;9.52;;;1.60;;
71941;SDS011;59997;53.300;-6.260;2022-08-25T08:44:11;9.60;;;1.85;;
71941;SDS011;59997;53.300;-6.260;2022-08-25T08:53:07;10.18;;;2.50;;
71941;SDS011;59997;53.300;-6.260;2022-08-25T08:55:51;6.60;;;2.03;;
71941;SDS011;59997;53.300;-6.260;2022-08-25T09:01:24;7.32;;;1.80;;
71941;SDS011;59997;53.300;-6.260;2022-08-25T09:06:49;9.27;;;1.40;;
71941;SDS011;59997;53.300;-6.260;2022-08-25T09:09:15;7.73;;;2.07;;
71941;SDS011;59997;53.300;-6.260;2022-08-25T09:14:20;9.90;;;2.00;;
71941;SDS011;59997;53.300;-6.260;2022-08-25T09:20:07;8.13;;;2.20;;
71941;SDS011;59997;53.300;-6.260;2022-08-25T09:30:57;6.53;;;2.00;;
71941;SDS011;59997;53.300;-6.260;2022-08-25T09:33:25;8.48;;;2.08;;
71941;SDS011;59997;53.300;-6.260;2022-08-25T09:35:54;6.90;;;2.10;;
71941;SDS011;59997;53.300;-6.260;2022-08-25T09:38:22;8.57;;;1.67;;
71941;SDS011;59997;53.300;-6.260;2022-08-25T09:40:55;6.00;;;2.00;;
71941;SDS011;59997;53.300;-6.260;2022-08-25T09:43:33;8.27;;;1.90;;
71941;SDS011;59997;53.300;-6.260;2022-08-25T09:48:33;8.25;;;2.42;;
71941;SDS011;59997;53.300;-6.260;2022-08-25T09:51:27;7.88;;;1.90;;
71941;SDS011;59997;53.300;-6.260;2022-08-25T09:53:56;8.65;;;2.33;;
71941;SDS011;59997;53.300;-6.260;2022-08-25T09:56:28;6.40;;;2.37;;
71941;SDS011;59997;53.300;-6.260;2022-08-25T09:59:16;8.02;;;2.25;;
71941;SDS011;59997;53.300;-6.260;2022-08-25T10:01:49;7.97;;;2.42;;
71941;SDS011;59997;53.300;-6.260;2022-08-25T10:04:27;8.27;;;2.00;;
71941;SDS011;59997;53.300;-6.260;2022-08-25T10:06:58;8.25;;;2.38;;
71941;SDS011;59997;53.300;-6.260;2022-08-25T10:09:39;8.17;;;1.90;;
71941;SDS011;59997;53.300;-6.260;2022-08-25T10:12:16;6.05;;;1.98;;
71941;SDS011;59997;53.300;-6.260;2022-08-25T10:14:45;6.05;;;2.08;;
71941;SDS011;59997;53.300;-6.260;2022-08-25T10:17:16;6.68;;;1.98;;
71941;SDS011;59997;53.300;-6.260;2022-08-25T10:19:53;6.50;;;2.08;;
71941;SDS011;59997;53.300;-6.260;2022-08-25T10:22:40;7.60;;;2.03;;
71941;SDS011;59997;53.300;-6.260;2022-08-25T10:25:08;7.07;;;2.00;;
71941;SDS011;59997;53.300;-6.260;2022-08-25T10:36:36;6.07;;;2.40;;
71941;SDS011;59997;53.300;-6.260;2022-08-25T10:39:29;8.35;;;2.30;;
71941;SDS011;59997;53.300;-6.260;2022-08-25T10:42:12;7.07;;;2.35;;
71941;SDS011;59997;53.300;-6.260;2022-08-25T10:45:17;7.70;;;2.20;;
71941;SDS011;59997;53.300;-6.260;2022-08-25T10:50:47;8.67;;;2.20;;
71941;SDS011;59997;53.300;-6.260;2022-08-25T10:56:40;6.00;;;2.03;;
71941;SDS011;59997;53.300;-6.260;2022-08-25T11:05:03;5.87;;;2.00;;
71941;SDS011;59997;53.300;-6.260;2022-08-25T11:07:34;5.95;;;1.92;;
71941;SDS011;59997;53.300;-6.260;2022-08-25T11:12:54;7.03;;;2.08;;
71941;SDS011;59997;53.300;-6.260;2022-08-25T11:15:32;5.55;;;1.80;;
71941;SDS011;59997;53.300;-6.260;2022-08-25T11:18:10;7.90;;;2.10;;
71941;SDS011;59997;53.300;-6.260;2022-08-25T11:26:10;6.57;;;2.03;;
71941;SDS011;59997;53.300;-6.260;2022-08-25T11:31:09;7.03;;;2.10;;
71941;SDS011;59997;53.300;-6.260;2022-08-25T11:33:36;7.43;;;2.03;;
71941;SDS011;59997;53.300;-6.260;2022-08-25T11:36:08;6.90;;;1.27;;
71941;SDS011;59997;53.300;-6.260;2022-08-25T11:41:32;6.57;;;2.00;;
71941;SDS011;59997;53.300;-6.260;2022-08-25T11:44:35;7.27;;;1.57;;
71941;SDS011;59997;53.300;-6.260;2022-08-25T11:57:48;6.73;;;1.67;;
71941;SDS011;59997;53.300;-6.260;2022-08-25T12:02:49;6.15;;;1.38;;
71941;SDS011;59997;53.300;-6.260;2022-08-25T12:13:45;7.93;;;1.50;;
71941;SDS011;59997;53.300;-6.260;2022-08-25T12:24:44;6.45;;;1.10;;
71941;SDS011;59997;53.300;-6.260;2022-08-25T12:30:31;6.88;;;1.00;;
71941;SDS011;59997;53.300;-6.260;2022-08-25T12:33:20;8.23;;;1.20;;
71941;SDS011;59997;53.300;-6.260;2022-08-25T12:36:10;7.68;;;1.90;;
71941;SDS011;59997;53.300;-6.260;2022-08-25T12:38:53;4.82;;;0.98;;
71941;SDS011;59997;53.300;-6.260;2022-08-25T12:43:47;8.18;;;1.35;;
71941;SDS011;59997;53.300;-6.260;2022-08-25T12:49:09;8.50;;;1.00;;
71941;SDS011;59997;53.300;-6.260;2022-08-25T12:56:44;6.82;;;1.10;;
71941;SDS011;59997;53.300;-6.260;2022-08-25T13:16:53;4.80;;;0.85;;
71941;SDS011;59997;53.300;-6.260;2022-08-25T13:19:20;7.40;;;1.60;;
71941;SDS011;59997;53.300;-6.260;2022-08-25T13:21:49;5.20;;;1.50;;
71941;SDS011;59997;53.300;-6.260;2022-08-25T13:26:54;5.17;;;1.30;;
71941;SDS011;59997;53.300;-6.260;2022-08-25T13:29:25;6.15;;;1.65;;
71941;SDS011;59997;53.300;-6.260;2022-08-25T13:31:55;4.57;;;1.38;;
71941;SDS011;59997;53.300;-6.260;2022-08-25T13:34:24;5.22;;;0.98;;
71941;SDS011;59997;53.300;-6.260;2022-08-25T13:36:53;5.95;;;1.05;;
71941;SDS011;59997;53.300;-6.260;2022-08-25T13:39:37;6.27;;;0.90;;
71941;SDS011;59997;53.300;-6.260;2022-08-25T13:42:05;6.45;;;1.10;;
71941;SDS011;59997;53.300;-6.260;2022-08-25T13:44:41;6.03;;;0.90;;
71941;SDS011;59997;53.300;-6.260;2022-08-25T13:47:15;7.57;;;1.40;;
71941;SDS011;59997;53.300;-6.260;2022-08-25T13:50:13;8.88;;;1.70;;
71941;SDS011;59997;53.300;-6.260;2022-08-25T13:52:54;7.37;;;1.43;;
71941;SDS011;59997;53.300;-6.260;2022-08-25T13:55:55;5.75;;;1.35;;
71941;SDS011;59997;53.300;-6.260;2022-08-25T13:58:23;4.63;;;1.73;;
71941;SDS011;59997;53.300;-6.260;2022-08-25T14:04:18;6.85;;;1.35;;
71941;SDS011;59997;53.300;-6.260;2022-08-25T14:12:35;5.50;;;1.55;;
71941;SDS011;59997;53.300;-6.260;2022-08-25T14:18:01;5.55;;;1.85;;
71941;SDS011;59997;53.300;-6.260;2022-08-25T14:20:30;5.70;;;1.30;;
71941;SDS011;59997;53.300;-6.260;2022-08-25T14:22:59;5.88;;;1.00;;
71941;SDS011;59997;53.300;-6.260;2022-08-25T14:25:28;5.00;;;1.00;;
71941;SDS011;59997;53.300;-6.260;2022-08-25T14:27:56;5.10;;;1.50;;
71941;SDS011;59997;53.300;-6.260;2022-08-25T14:30:24;6.53;;;2.28;;
71941;SDS011;59997;53.300;-6.260;2022-08-25T14:32:51;4.67;;;0.80;;
71941;SDS011;59997;53.300;-6.260;2022-08-25T14:35:17;6.55;;;1.40;;
71941;SDS011;59997;53.300;-6.260;2022-08-25T14:37:44;5.05;;;1.25;;
71941;SDS011;59997;53.300;-6.260;2022-08-25T14:40:10;5.50;;;1.40;;
71941;SDS011;59997;53.300;-6.260;2022-08-25T14:42:54;4.18;;;0.80;;
71941;SDS011;59997;53.300;-6.260;2022-08-25T14:45:20;4.60;;;0.80;;
71941;SDS011;59997;53.300;-6.260;2022-08-25T14:47:46;9.48;;;0.80;;
71941;SDS011;59997;53.300;-6.260;2022-08-25T14:50:32;4.95;;;0.80;;
71941;SDS011;59997;53.300;-6.260;2022-08-25T14:53:03;5.63;;;0.85;;
71941;SDS011;59997;53.300;-6.260;2022-08-25T14:55:29;6.67;;;0.60;;
71941;SDS011;59997;53.300;-6.260;2022-08-25T14:57:56;6.47;;;0.75;;
71941;SDS011;59997;53.300;-6.260;2022-08-25T15:00:23;4.63;;;0.80;;
71941;SDS011;59997;53.300;-6.260;2022-08-25T15:02:50;4.80;;;0.63;;
71941;SDS011;59997;53.300;-6.260;2022-08-25T15:05:23;7.72;;;1.08;;
71941;SDS011;59997;53.300;-6.260;2022-08-25T15:08:04;4.43;;;0.65;;
71941;SDS011;59997;53.300;-6.260;2022-08-25T15:10:49;7.40;;;0.90;;
71941;SDS011;59997;53.300;-6.260;2022-08-25T15:13:14;5.70;;;0.97;;
71941;SDS011;59997;53.300;-6.260;2022-08-25T15:15:42;4.90;;;0.60;;
71941;SDS011;59997;53.300;-6.260;2022-08-25T15:18:08;5.80;;;0.85;;
71941;SDS011;59997;53.300;-6.260;2022-08-25T15:20:34;4.93;;;0.83;;
71941;SDS011;59997;53.300;-6.260;2022-08-25T15:23:01;6.30;;;0.68;;
71941;SDS011;59997;53.300;-6.260;2022-08-25T15:25:26;6.05;;;1.10;;
71941;SDS011;59997;53.300;-6.260;2022-08-25T15:27:53;5.88;;;0.90;;
71941;SDS011;59997;53.300;-6.260;2022-08-25T15:30:19;8.15;;;1.02;;
71941;SDS011;59997;53.300;-6.260;2022-08-25T15:32:45;8.53;;;1.20;;
71941;SDS011;59997;53.300;-6.260;2022-08-25T15:35:11;7.05;;;1.05;;
71941;SDS011;59997;53.300;-6.260;2022-08-25T15:37:37;7.50;;;0.90;;
71941;SDS011;59997;53.300;-6.260;2022-08-25T15:40:04;7.60;;;1.20;;
71941;SDS011;59997;53.300;-6.260;2022-08-25T15:42:30;5.50;;;0.77;;
71941;SDS011;59997;53.300;-6.260;2022-08-25T15:44:56;7.82;;;0.70;;
71941;SDS011;59997;53.300;-6.260;2022-08-25T15:47:22;6.03;;;0.95;;
71941;SDS011;59997;53.300;-6.260;2022-08-25T15:49:49;6.93;;;0.95;;
71941;SDS011;59997;53.300;-6.260;2022-08-25T15:52:23;6.55;;;0.80;;
71941;SDS011;59997;53.300;-6.260;2022-08-25T15:54:49;7.63;;;1.37;;
71941;SDS011;59997;53.300;-6.260;2022-08-25T15:57:15;8.68;;;0.80;;
71941;SDS011;59997;53.300;-6.260;2022-08-25T15:59:41;6.90;;;0.90;;
71941;SDS011;59997;53.300;-6.260;2022-08-25T16:02:08;5.40;;;1.10;;
71941;SDS011;59997;53.300;-6.260;2022-08-25T16:04:34;7.03;;;0.90;;
71941;SDS011;59997;53.300;-6.260;2022-08-25T16:07:01;5.68;;;0.80;;
71941;SDS011;59997;53.300;-6.260;2022-08-25T16:09:27;8.98;;;1.23;;
71941;SDS011;59997;53.300;-6.260;2022-08-25T16:11:53;8.53;;;1.47;;
71941;SDS011;59997;53.300;-6.260;2022-08-25T16:14:19;5.20;;;1.20;;
71941;SDS011;59997;53.300;-6.260;2022-08-25T16:16:45;8.55;;;1.00;;
71941;SDS011;59997;53.300;-6.260;2022-08-25T16:19:10;8.43;;;1.10;;
71941;SDS011;59997;53.300;-6.260;2022-08-25T16:21:37;7.72;;;1.17;;
71941;SDS011;59997;53.300;-6.260;2022-08-25T16:24:05;6.55;;;1.15;;
71941;SDS011;59997;53.300;-6.260;2022-08-25T16:26:31;5.70;;;0.90;;
71941;SDS011;59997;53.300;-6.260;2022-08-25T16:29:01;7.32;;;0.98;;
71941;SDS011;59997;53.300;-6.260;2022-08-25T16:31:31;7.77;;;1.13;;
71941;SDS011;59997;53.300;-6.260;2022-08-25T16:33:57;6.55;;;1.02;;
71941;SDS011;59997;53.300;-6.260;2022-08-25T16:36:23;4.85;;;0.80;;
71941;SDS011;59997;53.300;-6.260;2022-08-25T16:38:50;8.32;;;0.95;;
71941;SDS011;59997;53.300;-6.260;2022-08-25T16:41:18;7.25;;;1.02;;
71941;SDS011;59997;53.300;-6.260;2022-08-25T16:43:47;6.07;;;0.80;;
71941;SDS011;59997;53.300;-6.260;2022-08-25T16:46:14;5.45;;;0.70;;
71941;SDS011;59997;53.300;-6.260;2022-08-25T16:48:42;6.15;;;1.83;;
71941;SDS011;59997;53.300;-6.260;2022-08-25T16:51:09;7.63;;;1.13;;
71941;SDS011;59997;53.300;-6.260;2022-08-25T16:53:36;7.57;;;0.98;;
71941;SDS011;59997;53.300;-6.260;2022-08-25T16:56:20;7.97;;;1.55;;
71941;SDS011;59997;53.300;-6.260;2022-08-25T16:58:52;11.13;;;1.83;;
71941;SDS011;59997;53.300;-6.260;2022-08-25T17:01:19;8.55;;;0.95;;
71941;SDS011;59997;53.300;-6.260;2022-08-25T17:03:45;8.20;;;1.30;;
71941;SDS011;59997;53.300;-6.260;2022-08-25T17:06:11;8.65;;;1.48;;
71941;SDS011;59997;53.300;-6.260;2022-08-25T17:08:39;5.82;;;0.88;;
71941;SDS011;59997;53.300;-6.260;2022-08-25T17:11:15;8.15;;;0.88;;
71941;SDS011;59997;53.300;-6.260;2022-08-25T17:13:50;6.15;;;0.73;;